sensor_id;sensor_type;location;lat;lon;timestamp;temperature;humidity
54832;DHT22;40730;53.068;6.572;2023-04-25T00:02:00;6.50;99.90
54832;DHT22;40730;53.068;6.572;2023-04-25T00:04:27;6.50;99.90
54832;DHT22;40730;53.068;6.572;2023-04-25T00:06:53;6.50;99.90
54832;DHT22;40730;53.068;6.572;2023-04-25T00:09:19;6.50;99.90
54832;DHT22;40730;53.068;6.572;2023-04-25T00:11:45;6.50;99.90
54832;DHT22;40730;53.068;6.572;2023-04-25T00:14:10;6.50;99.90
54832;DHT22;40730;53.068;6.572;2023-04-25T00:16:36;6.50;99.90
54832;DHT22;40730;53.068;6.572;2023-04-25T00:19:02;6.40;99.90
54832;DHT22;40730;53.068;6.572;2023-04-25T00:21:28;6.40;99.90
54832;DHT22;40730;53.068;6.572;2023-04-25T00:23:54;6.40;99.90
54832;DHT22;40730;53.068;6.572;2023-04-25T00:26:20;6.40;99.90
54832;DHT22;40730;53.068;6.572;2023-04-25T00:28:47;6.40;99.90
54832;DHT22;40730;53.068;6.572;2023-04-25T00:31:13;6.40;99.90
54832;DHT22;40730;53.068;6.572;2023-04-25T00:33:38;6.30;99.90
54832;DHT22;40730;53.068;6.572;2023-04-25T00:36:04;6.30;99.90
54832;DHT22;40730;53.068;6.572;2023-04-25T00:38:30;6.30;99.90
54832;DHT22;40730;53.068;6.572;2023-04-25T00:40:56;6.30;99.90
54832;DHT22;40730;53.068;6.572;2023-04-25T00:43:25;6.30;99.90
54832;DHT22;40730;53.068;6.572;2023-04-25T00:45:52;6.20;99.90
54832;DHT22;40730;53.068;6.572;2023-04-25T00:48:21;6.20;99.90
54832;DHT22;40730;53.068;6.572;2023-04-25T00:50:56;6.30;99.90
54832;DHT22;40730;53.068;6.572;2023-04-25T00:53:23;6.30;99.90
54832;DHT22;40730;53.068;6.572;2023-04-25T00:55:50;6.30;99.90
54832;DHT22;40730;53.068;6.572;2023-04-25T00:58:20;6.30;99.90
54832;DHT22;40730;53.068;6.572;2023-04-25T01:00:47;6.30;99.90
54832;DHT22;40730;53.068;6.572;2023-04-25T01:03:16;6.20;99.90
54832;DHT22;40730;53.068;6.572;2023-04-25T01:05:46;6.20;99.90
54832;DHT22;40730;53.068;6.572;2023-04-25T01:08:12;6.20;99.90
54832;DHT22;40730;53.068;6.572;2023-04-25T01:10:38;6.20;99.90
54832;DHT22;40730;53.068;6.572;2023-04-25T01:13:04;6.20;99.90
54832;DHT22;40730;53.068;6.572;2023-04-25T01:15:29;6.10;99.90
54832;DHT22;40730;53.068;6.572;2023-04-25T01:17:55;6.10;99.90
54832;DHT22;40730;53.068;6.572;2023-04-25T01:20:22;6.00;99.90
54832;DHT22;40730;53.068;6.572;2023-04-25T01:22:49;6.00;99.90
54832;DHT22;40730;53.068;6.572;2023-04-25T01:25:15;5.90;99.90
54832;DHT22;40730;53.068;6.572;2023-04-25T01:27:41;5.90;99.90
54832;DHT22;40730;53.068;6.572;2023-04-25T01:30:07;5.90;99.90
54832;DHT22;40730;53.068;6.572;2023-04-25T01:32:33;5.80;99.90
54832;DHT22;40730;53.068;6.572;2023-04-25T01:35:05;5.80;99.90
54832;DHT22;40730;53.068;6.572;2023-04-25T01:37:38;5.80;99.90
54832;DHT22;40730;53.068;6.572;2023-04-25T01:40:05;5.80;99.90
54832;DHT22;40730;53.068;6.572;2023-04-25T01:42:32;5.80;99.90
54832;DHT22;40730;53.068;6.572;2023-04-25T01:44:58;5.80;99.90
54832;DHT22;40730;53.068;6.572;2023-04-25T01:47:24;5.80;99.90
54832;DHT22;40730;53.068;6.572;2023-04-25T01:49:50;5.80;99.90
54832;DHT22;40730;53.068;6.572;2023-04-25T01:52:15;5.80;99.90
54832;DHT22;40730;53.068;6.572;2023-04-25T01:54:41;5.80;99.90
54832;DHT22;40730;53.068;6.572;2023-04-25T01:57:10;5.80;99.90
54832;DHT22;40730;53.068;6.572;2023-04-25T01:59:36;5.80;99.90
54832;DHT22;40730;53.068;6.572;2023-04-25T02:02:01;5.70;99.90
54832;DHT22;40730;53.068;6.572;2023-04-25T02:04:29;5.70;99.90
54832;DHT22;40730;53.068;6.572;2023-04-25T02:06:55;5.90;99.90
54832;DHT22;40730;53.068;6.572;2023-04-25T02:09:21;5.70;99.90
54832;DHT22;40730;53.068;6.572;2023-04-25T02:11:47;5.80;99.90
54832;DHT22;40730;53.068;6.572;2023-04-25T02:14:12;5.70;99.90
54832;DHT22;40730;53.068;6.572;2023-04-25T02:16:38;5.60;99.90
54832;DHT22;40730;53.068;6.572;2023-04-25T02:19:04;5.60;99.90
54832;DHT22;40730;53.068;6.572;2023-04-25T02:21:30;5.60;99.90
54832;DHT22;40730;53.068;6.572;2023-04-25T02:23:56;5.60;99.90
54832;DHT22;40730;53.068;6.572;2023-04-25T02:26:22;5.60;99.90
54832;DHT22;40730;53.068;6.572;2023-04-25T02:28:49;5.60;99.90
54832;DHT22;40730;53.068;6.572;2023-04-25T02:31:15;5.60;99.90
54832;DHT22;40730;53.068;6.572;2023-04-25T02:33:41;5.60;99.90
54832;DHT22;40730;53.068;6.572;2023-04-25T02:36:07;5.60;99.90
54832;DHT22;40730;53.068;6.572;2023-04-25T02:38:33;5.50;99.90
54832;DHT22;40730;53.068;6.572;2023-04-25T02:40:58;5.50;99.90
54832;DHT22;40730;53.068;6.572;2023-04-25T02:43:24;5.60;99.90
54832;DHT22;40730;53.068;6.572;2023-04-25T02:45:49;5.50;99.90
54832;DHT22;40730;53.068;6.572;2023-04-25T02:48:15;5.60;99.90
54832;DHT22;40730;53.068;6.572;2023-04-25T02:50:41;5.60;99.90
54832;DHT22;40730;53.068;6.572;2023-04-25T02:53:06;5.60;99.90
54832;DHT22;40730;53.068;6.572;2023-04-25T02:55:32;5.60;99.90
54832;DHT22;40730;53.068;6.572;2023-04-25T02:57:57;5.70;99.90
54832;DHT22;40730;53.068;6.572;2023-04-25T03:00:23;5.70;99.90
54832;DHT22;40730;53.068;6.572;2023-04-25T03:02:49;5.70;99.90
54832;DHT22;40730;53.068;6.572;2023-04-25T03:05:14;5.70;99.90
54832;DHT22;40730;53.068;6.572;2023-04-25T03:07:40;5.70;99.90
54832;DHT22;40730;53.068;6.572;2023-04-25T03:10:09;5.70;99.90
54832;DHT22;40730;53.068;6.572;2023-04-25T03:12:34;5.70;99.90
54832;DHT22;40730;53.068;6.572;2023-04-25T03:15:00;5.70;99.90
54832;DHT22;40730;53.068;6.572;2023-04-25T03:17:26;5.60;99.90
54832;DHT22;40730;53.068;6.572;2023-04-25T03:19:51;5.70;99.90
54832;DHT22;40730;53.068;6.572;2023-04-25T03:22:17;5.70;99.90
54832;DHT22;40730;53.068;6.572;2023-04-25T03:24:43;5.60;99.90
54832;DHT22;40730;53.068;6.572;2023-04-25T03:27:08;5.60;99.90
54832;DHT22;40730;53.068;6.572;2023-04-25T03:29:34;5.60;99.90
54832;DHT22;40730;53.068;6.572;2023-04-25T03:32:00;5.60;99.90
54832;DHT22;40730;53.068;6.572;2023-04-25T03:34:25;5.60;99.90
54832;DHT22;40730;53.068;6.572;2023-04-25T03:36:51;5.60;99.90
54832;DHT22;40730;53.068;6.572;2023-04-25T03:39:17;5.50;99.90
54832;DHT22;40730;53.068;6.572;2023-04-25T03:41:42;5.50;99.90
54832;DHT22;40730;53.068;6.572;2023-04-25T03:44:08;5.50;99.90
54832;DHT22;40730;53.068;6.572;2023-04-25T03:46:34;5.40;99.90
54832;DHT22;40730;53.068;6.572;2023-04-25T03:48:59;5.40;99.90
54832;DHT22;40730;53.068;6.572;2023-04-25T03:51:25;5.30;99.90
54832;DHT22;40730;53.068;6.572;2023-04-25T03:53:51;5.30;99.90
54832;DHT22;40730;53.068;6.572;2023-04-25T03:56:17;5.30;99.90
54832;DHT22;40730;53.068;6.572;2023-04-25T03:58:43;5.20;99.90
54832;DHT22;40730;53.068;6.572;2023-04-25T04:01:08;5.30;99.90
54832;DHT22;40730;53.068;6.572;2023-04-25T04:03:34;5.20;99.90
54832;DHT22;40730;53.068;6.572;2023-04-25T04:06:01;5.20;99.90
54832;DHT22;40730;53.068;6.572;2023-04-25T04:08:29;5.10;99.90
54832;DHT22;40730;53.068;6.572;2023-04-25T04:10:55;5.10;99.90
54832;DHT22;40730;53.068;6.572;2023-04-25T04:13:21;5.00;99.90
54832;DHT22;40730;53.068;6.572;2023-04-25T04:15:46;5.00;99.90
54832;DHT22;40730;53.068;6.572;2023-04-25T04:18:12;4.90;99.90
54832;DHT22;40730;53.068;6.572;2023-04-25T04:20:37;4.80;99.90
54832;DHT22;40730;53.068;6.572;2023-04-25T04:23:03;4.80;99.90
54832;DHT22;40730;53.068;6.572;2023-04-25T04:25:28;4.80;99.90
54832;DHT22;40730;53.068;6.572;2023-04-25T04:27:55;4.80;99.90
54832;DHT22;40730;53.068;6.572;2023-04-25T04:30:22;4.70;99.90
54832;DHT22;40730;53.068;6.572;2023-04-25T04:32:50;4.70;99.90
54832;DHT22;40730;53.068;6.572;2023-04-25T04:35:15;4.70;99.90
54832;DHT22;40730;53.068;6.572;2023-04-25T04:37:41;4.70;99.90
54832;DHT22;40730;53.068;6.572;2023-04-25T04:40:07;4.70;99.90
54832;DHT22;40730;53.068;6.572;2023-04-25T04:42:33;4.70;99.90
54832;DHT22;40730;53.068;6.572;2023-04-25T04:44:58;4.70;99.90
54832;DHT22;40730;53.068;6.572;2023-04-25T04:47:27;4.70;99.90
54832;DHT22;40730;53.068;6.572;2023-04-25T04:49:56;4.70;99.90
54832;DHT22;40730;53.068;6.572;2023-04-25T04:52:22;4.70;99.90
54832;DHT22;40730;53.068;6.572;2023-04-25T04:54:48;4.70;99.90
54832;DHT22;40730;53.068;6.572;2023-04-25T04:57:13;4.70;99.90
54832;DHT22;40730;53.068;6.572;2023-04-25T04:59:40;4.70;99.90
54832;DHT22;40730;53.068;6.572;2023-04-25T05:02:06;5.10;99.90
54832;DHT22;40730;53.068;6.572;2023-04-25T05:04:31;5.50;99.90
54832;DHT22;40730;53.068;6.572;2023-04-25T05:06:57;5.70;99.90
54832;DHT22;40730;53.068;6.572;2023-04-25T05:09:22;5.90;99.90
54832;DHT22;40730;53.068;6.572;2023-04-25T05:11:51;6.00;99.90
54832;DHT22;40730;53.068;6.572;2023-04-25T05:14:17;5.70;99.90
54832;DHT22;40730;53.068;6.572;2023-04-25T05:16:43;5.50;99.90
54832;DHT22;40730;53.068;6.572;2023-04-25T05:19:09;5.30;99.90
54832;DHT22;40730;53.068;6.572;2023-04-25T05:21:35;5.10;99.90
54832;DHT22;40730;53.068;6.572;2023-04-25T05:24:01;5.10;99.90
54832;DHT22;40730;53.068;6.572;2023-04-25T05:26:26;5.00;99.90
54832;DHT22;40730;53.068;6.572;2023-04-25T05:28:56;5.00;99.90
54832;DHT22;40730;53.068;6.572;2023-04-25T05:31:22;5.00;99.90
54832;DHT22;40730;53.068;6.572;2023-04-25T05:33:48;5.00;99.90
54832;DHT22;40730;53.068;6.572;2023-04-25T05:36:13;5.00;99.90
54832;DHT22;40730;53.068;6.572;2023-04-25T05:38:39;5.00;99.90
54832;DHT22;40730;53.068;6.572;2023-04-25T05:41:04;5.10;99.90
54832;DHT22;40730;53.068;6.572;2023-04-25T05:43:30;5.20;99.90
54832;DHT22;40730;53.068;6.572;2023-04-25T05:45:56;5.20;99.90
54832;DHT22;40730;53.068;6.572;2023-04-25T05:48:21;5.30;99.90
54832;DHT22;40730;53.068;6.572;2023-04-25T05:50:47;5.40;99.90
54832;DHT22;40730;53.068;6.572;2023-04-25T05:53:13;5.50;99.90
54832;DHT22;40730;53.068;6.572;2023-04-25T05:55:38;5.60;99.90
54832;DHT22;40730;53.068;6.572;2023-04-25T05:58:05;5.60;99.90
54832;DHT22;40730;53.068;6.572;2023-04-25T06:00:32;5.70;99.90
54832;DHT22;40730;53.068;6.572;2023-04-25T06:02:58;5.80;99.90
54832;DHT22;40730;53.068;6.572;2023-04-25T06:05:23;5.80;99.90
54832;DHT22;40730;53.068;6.572;2023-04-25T06:07:49;5.90;99.90
54832;DHT22;40730;53.068;6.572;2023-04-25T06:10:15;5.90;99.90
54832;DHT22;40730;53.068;6.572;2023-04-25T06:12:40;6.00;99.90
54832;DHT22;40730;53.068;6.572;2023-04-25T06:15:06;6.10;99.90
54832;DHT22;40730;53.068;6.572;2023-04-25T06:17:33;6.10;99.90
54832;DHT22;40730;53.068;6.572;2023-04-25T06:19:58;6.20;99.90
54832;DHT22;40730;53.068;6.572;2023-04-25T06:22:24;6.20;99.90
54832;DHT22;40730;53.068;6.572;2023-04-25T06:24:50;6.40;99.90
54832;DHT22;40730;53.068;6.572;2023-04-25T06:27:15;6.40;99.90
54832;DHT22;40730;53.068;6.572;2023-04-25T06:29:41;6.50;99.90
54832;DHT22;40730;53.068;6.572;2023-04-25T06:32:06;6.60;99.90
54832;DHT22;40730;53.068;6.572;2023-04-25T06:34:32;6.60;99.90
54832;DHT22;40730;53.068;6.572;2023-04-25T06:36:57;6.70;99.90
54832;DHT22;40730;53.068;6.572;2023-04-25T06:39:23;6.70;99.90
54832;DHT22;40730;53.068;6.572;2023-04-25T06:41:50;7.00;99.90
54832;DHT22;40730;53.068;6.572;2023-04-25T06:44:15;6.70;99.90
54832;DHT22;40730;53.068;6.572;2023-04-25T06:46:41;6.80;99.90
54832;DHT22;40730;53.068;6.572;2023-04-25T06:49:06;6.80;99.90
54832;DHT22;40730;53.068;6.572;2023-04-25T06:51:32;6.80;99.90
54832;DHT22;40730;53.068;6.572;2023-04-25T06:53:58;6.90;99.90
54832;DHT22;40730;53.068;6.572;2023-04-25T06:56:24;6.80;99.90
54832;DHT22;40730;53.068;6.572;2023-04-25T06:58:50;6.90;99.90
54832;DHT22;40730;53.068;6.572;2023-04-25T07:01:16;6.90;99.90
54832;DHT22;40730;53.068;6.572;2023-04-25T07:03:41;6.90;99.90
54832;DHT22;40730;53.068;6.572;2023-04-25T07:06:07;7.10;99.90
54832;DHT22;40730;53.068;6.572;2023-04-25T07:08:33;7.30;99.90
54832;DHT22;40730;53.068;6.572;2023-04-25T07:10:58;7.50;99.90
54832;DHT22;40730;53.068;6.572;2023-04-25T07:13:24;7.70;99.90
54832;DHT22;40730;53.068;6.572;2023-04-25T07:15:49;7.80;99.90
54832;DHT22;40730;53.068;6.572;2023-04-25T07:18:15;8.10;99.90
54832;DHT22;40730;53.068;6.572;2023-04-25T07:20:41;7.90;99.90
54832;DHT22;40730;53.068;6.572;2023-04-25T07:23:06;7.90;99.90
54832;DHT22;40730;53.068;6.572;2023-04-25T07:25:32;7.90;99.90
54832;DHT22;40730;53.068;6.572;2023-04-25T07:27:58;7.80;99.90
54832;DHT22;40730;53.068;6.572;2023-04-25T07:30:23;7.80;99.90
54832;DHT22;40730;53.068;6.572;2023-04-25T07:32:50;7.90;99.90
54832;DHT22;40730;53.068;6.572;2023-04-25T07:35:16;8.10;99.90
54832;DHT22;40730;53.068;6.572;2023-04-25T07:37:42;8.10;99.90
54832;DHT22;40730;53.068;6.572;2023-04-25T07:40:08;8.30;99.90
54832;DHT22;40730;53.068;6.572;2023-04-25T07:42:34;8.50;99.90
54832;DHT22;40730;53.068;6.572;2023-04-25T07:45:01;8.30;99.90
54832;DHT22;40730;53.068;6.572;2023-04-25T07:47:26;8.20;99.90
54832;DHT22;40730;53.068;6.572;2023-04-25T07:49:52;8.20;99.90
54832;DHT22;40730;53.068;6.572;2023-04-25T07:52:18;8.10;99.90
54832;DHT22;40730;53.068;6.572;2023-04-25T07:54:43;8.00;99.90
54832;DHT22;40730;53.068;6.572;2023-04-25T07:57:09;7.90;99.90
54832;DHT22;40730;53.068;6.572;2023-04-25T07:59:35;7.80;99.90
54832;DHT22;40730;53.068;6.572;2023-04-25T08:02:01;7.80;99.90
54832;DHT22;40730;53.068;6.572;2023-04-25T08:04:28;7.80;99.90
54832;DHT22;40730;53.068;6.572;2023-04-25T08:06:53;8.10;99.90
54832;DHT22;40730;53.068;6.572;2023-04-25T08:09:20;7.60;99.90
54832;DHT22;40730;53.068;6.572;2023-04-25T08:11:46;7.50;99.90
54832;DHT22;40730;53.068;6.572;2023-04-25T08:14:12;7.50;99.90
54832;DHT22;40730;53.068;6.572;2023-04-25T08:16:38;7.90;99.90
54832;DHT22;40730;53.068;6.572;2023-04-25T08:19:04;7.80;99.90
54832;DHT22;40730;53.068;6.572;2023-04-25T08:21:30;8.10;99.90
54832;DHT22;40730;53.068;6.572;2023-04-25T08:23:57;8.20;99.90
54832;DHT22;40730;53.068;6.572;2023-04-25T08:26:24;8.50;99.90
54832;DHT22;40730;53.068;6.572;2023-04-25T08:28:50;8.90;99.90
54832;DHT22;40730;53.068;6.572;2023-04-25T08:31:16;9.30;99.90
54832;DHT22;40730;53.068;6.572;2023-04-25T08:33:42;9.40;99.90
54832;DHT22;40730;53.068;6.572;2023-04-25T08:36:08;8.60;99.90
54832;DHT22;40730;53.068;6.572;2023-04-25T08:38:36;7.50;99.90
54832;DHT22;40730;53.068;6.572;2023-04-25T08:41:02;6.40;99.90
54832;DHT22;40730;53.068;6.572;2023-04-25T08:43:29;5.80;99.90
54832;DHT22;40730;53.068;6.572;2023-04-25T08:46:00;5.70;99.90
54832;DHT22;40730;53.068;6.572;2023-04-25T08:48:32;5.50;99.90
54832;DHT22;40730;53.068;6.572;2023-04-25T08:50:59;5.50;99.90
54832;DHT22;40730;53.068;6.572;2023-04-25T08:53:31;5.60;99.90
54832;DHT22;40730;53.068;6.572;2023-04-25T08:55:59;6.10;99.90
54832;DHT22;40730;53.068;6.572;2023-04-25T08:58:25;6.60;99.90
54832;DHT22;40730;53.068;6.572;2023-04-25T09:00:51;7.20;99.90
54832;DHT22;40730;53.068;6.572;2023-04-25T09:03:17;6.40;99.90
54832;DHT22;40730;53.068;6.572;2023-04-25T09:05:44;6.20;99.90
54832;DHT22;40730;53.068;6.572;2023-04-25T09:08:10;6.30;99.90
54832;DHT22;40730;53.068;6.572;2023-04-25T09:10:36;6.40;99.90
54832;DHT22;40730;53.068;6.572;2023-04-25T09:13:07;6.50;99.90
54832;DHT22;40730;53.068;6.572;2023-04-25T09:18:12;6.90;99.90
54832;DHT22;40730;53.068;6.572;2023-04-25T09:20:44;7.10;99.90
54832;DHT22;40730;53.068;6.572;2023-04-25T09:23:10;7.60;99.90
54832;DHT22;40730;53.068;6.572;2023-04-25T09:25:36;8.10;99.90
54832;DHT22;40730;53.068;6.572;2023-04-25T09:28:05;8.60;99.90
54832;DHT22;40730;53.068;6.572;2023-04-25T09:30:33;9.00;99.90
54832;DHT22;40730;53.068;6.572;2023-04-25T09:33:07;9.80;99.90
54832;DHT22;40730;53.068;6.572;2023-04-25T09:35:37;9.80;99.90
54832;DHT22;40730;53.068;6.572;2023-04-25T09:38:11;9.70;99.90
54832;DHT22;40730;53.068;6.572;2023-04-25T09:40:42;10.10;99.90
54832;DHT22;40730;53.068;6.572;2023-04-25T09:43:22;9.70;99.90
54832;DHT22;40730;53.068;6.572;2023-04-25T09:45:48;9.50;99.90
54832;DHT22;40730;53.068;6.572;2023-04-25T09:48:19;9.20;99.90
54832;DHT22;40730;53.068;6.572;2023-04-25T09:51:11;9.20;99.90
54832;DHT22;40730;53.068;6.572;2023-04-25T09:53:41;8.40;99.90
54832;DHT22;40730;53.068;6.572;2023-04-25T09:56:09;7.50;99.90
54832;DHT22;40730;53.068;6.572;2023-04-25T09:58:37;7.00;99.90
54832;DHT22;40730;53.068;6.572;2023-04-25T10:01:11;6.70;99.90
54832;DHT22;40730;53.068;6.572;2023-04-25T10:03:38;6.50;99.90
54832;DHT22;40730;53.068;6.572;2023-04-25T10:06:12;6.50;99.90
54832;DHT22;40730;53.068;6.572;2023-04-25T10:08:40;6.80;99.90
54832;DHT22;40730;53.068;6.572;2023-04-25T10:11:08;7.20;99.90
54832;DHT22;40730;53.068;6.572;2023-04-25T10:13:35;7.80;99.90
54832;DHT22;40730;53.068;6.572;2023-04-25T10:16:03;8.50;99.90
54832;DHT22;40730;53.068;6.572;2023-04-25T10:18:30;8.80;99.90
54832;DHT22;40730;53.068;6.572;2023-04-25T10:20:58;9.20;99.90
54832;DHT22;40730;53.068;6.572;2023-04-25T10:23:25;9.50;99.90
54832;DHT22;40730;53.068;6.572;2023-04-25T10:25:52;9.70;99.90
54832;DHT22;40730;53.068;6.572;2023-04-25T10:28:18;9.70;99.90
54832;DHT22;40730;53.068;6.572;2023-04-25T10:31:01;10.10;99.90
54832;DHT22;40730;53.068;6.572;2023-04-25T10:33:39;10.30;99.90
54832;DHT22;40730;53.068;6.572;2023-04-25T10:36:19;10.60;99.90
54832;DHT22;40730;53.068;6.572;2023-04-25T10:38:47;10.40;99.50
54832;DHT22;40730;53.068;6.572;2023-04-25T10:41:14;9.90;99.90
54832;DHT22;40730;53.068;6.572;2023-04-25T10:43:41;10.00;99.90
54832;DHT22;40730;53.068;6.572;2023-04-25T10:48:50;10.30;99.10
54832;DHT22;40730;53.068;6.572;2023-04-25T10:51:29;9.80;98.10
54832;DHT22;40730;53.068;6.572;2023-04-25T10:54:05;9.20;99.90
54832;DHT22;40730;53.068;6.572;2023-04-25T10:56:32;8.70;98.80
54832;DHT22;40730;53.068;6.572;2023-04-25T10:59:16;8.60;99.90
54832;DHT22;40730;53.068;6.572;2023-04-25T11:01:47;9.00;99.90
54832;DHT22;40730;53.068;6.572;2023-04-25T11:04:28;9.60;99.90
54832;DHT22;40730;53.068;6.572;2023-04-25T11:07:02;10.60;99.90
54832;DHT22;40730;53.068;6.572;2023-04-25T11:09:30;10.80;98.10
54832;DHT22;40730;53.068;6.572;2023-04-25T11:11:58;10.30;99.90
54832;DHT22;40730;53.068;6.572;2023-04-25T11:14:26;9.50;99.90
54832;DHT22;40730;53.068;6.572;2023-04-25T11:16:56;9.00;99.90
54832;DHT22;40730;53.068;6.572;2023-04-25T11:19:24;8.50;99.90
54832;DHT22;40730;53.068;6.572;2023-04-25T11:21:50;8.30;99.90
54832;DHT22;40730;53.068;6.572;2023-04-25T11:24:16;8.10;99.90
54832;DHT22;40730;53.068;6.572;2023-04-25T11:26:43;8.10;99.90
54832;DHT22;40730;53.068;6.572;2023-04-25T11:29:11;8.50;99.90
54832;DHT22;40730;53.068;6.572;2023-04-25T11:31:37;9.10;99.90
54832;DHT22;40730;53.068;6.572;2023-04-25T11:34:03;9.60;99.90
54832;DHT22;40730;53.068;6.572;2023-04-25T11:36:28;9.80;99.90
54832;DHT22;40730;53.068;6.572;2023-04-25T11:38:54;10.00;99.90
54832;DHT22;40730;53.068;6.572;2023-04-25T11:41:20;9.80;99.90
54832;DHT22;40730;53.068;6.572;2023-04-25T11:43:47;9.50;99.90
54832;DHT22;40730;53.068;6.572;2023-04-25T11:46:14;9.20;99.90
54832;DHT22;40730;53.068;6.572;2023-04-25T11:48:43;9.10;99.90
54832;DHT22;40730;53.068;6.572;2023-04-25T11:51:09;9.00;99.90
54832;DHT22;40730;53.068;6.572;2023-04-25T11:53:35;9.30;99.90
54832;DHT22;40730;53.068;6.572;2023-04-25T11:56:01;9.60;99.90
54832;DHT22;40730;53.068;6.572;2023-04-25T11:58:27;9.60;98.80
54832;DHT22;40730;53.068;6.572;2023-04-25T12:00:53;9.20;99.50
54832;DHT22;40730;53.068;6.572;2023-04-25T12:03:19;9.30;97.60
54832;DHT22;40730;53.068;6.572;2023-04-25T12:05:45;9.90;99.90
54832;DHT22;40730;53.068;6.572;2023-04-25T12:10:38;10.00;97.30
54832;DHT22;40730;53.068;6.572;2023-04-25T12:13:21;10.00;96.00
54832;DHT22;40730;53.068;6.572;2023-04-25T12:15:48;10.10;99.90
54832;DHT22;40730;53.068;6.572;2023-04-25T12:18:14;10.60;98.20
54832;DHT22;40730;53.068;6.572;2023-04-25T12:20:41;10.80;99.80
54832;DHT22;40730;53.068;6.572;2023-04-25T12:23:07;11.20;99.90
54832;DHT22;40730;53.068;6.572;2023-04-25T12:25:40;11.00;96.70
54832;DHT22;40730;53.068;6.572;2023-04-25T12:28:14;10.60;95.50
54832;DHT22;40730;53.068;6.572;2023-04-25T12:31:01;10.20;98.50
54832;DHT22;40730;53.068;6.572;2023-04-25T12:33:31;9.80;99.90
54832;DHT22;40730;53.068;6.572;2023-04-25T12:35:58;9.80;99.90
54832;DHT22;40730;53.068;6.572;2023-04-25T12:38:24;9.90;99.90
54832;DHT22;40730;53.068;6.572;2023-04-25T12:40:51;10.00;99.90
54832;DHT22;40730;53.068;6.572;2023-04-25T12:43:16;9.40;99.90
54832;DHT22;40730;53.068;6.572;2023-04-25T12:45:52;9.20;99.90
54832;DHT22;40730;53.068;6.572;2023-04-25T12:48:19;9.00;99.90
54832;DHT22;40730;53.068;6.572;2023-04-25T12:50:46;9.00;99.90
54832;DHT22;40730;53.068;6.572;2023-04-25T12:53:24;8.00;99.90
54832;DHT22;40730;53.068;6.572;2023-04-25T12:55:50;7.80;99.90
54832;DHT22;40730;53.068;6.572;2023-04-25T12:58:17;8.20;99.90
54832;DHT22;40730;53.068;6.572;2023-04-25T13:00:43;7.70;99.90
54832;DHT22;40730;53.068;6.572;2023-04-25T13:03:09;7.90;99.90
54832;DHT22;40730;53.068;6.572;2023-04-25T13:05:36;8.00;99.90
54832;DHT22;40730;53.068;6.572;2023-04-25T13:08:02;8.10;99.90
54832;DHT22;40730;53.068;6.572;2023-04-25T13:10:28;8.20;99.90
54832;DHT22;40730;53.068;6.572;2023-04-25T13:12:54;8.50;99.90
54832;DHT22;40730;53.068;6.572;2023-04-25T13:15:20;8.80;99.90
54832;DHT22;40730;53.068;6.572;2023-04-25T13:17:46;9.10;99.90
54832;DHT22;40730;53.068;6.572;2023-04-25T13:20:12;9.00;99.90
54832;DHT22;40730;53.068;6.572;2023-04-25T13:22:39;9.00;99.90
54832;DHT22;40730;53.068;6.572;2023-04-25T13:25:06;9.00;99.90
54832;DHT22;40730;53.068;6.572;2023-04-25T13:27:33;8.90;99.90
54832;DHT22;40730;53.068;6.572;2023-04-25T13:30:03;8.90;99.90
54832;DHT22;40730;53.068;6.572;2023-04-25T13:32:41;9.00;99.90
54832;DHT22;40730;53.068;6.572;2023-04-25T13:35:09;9.20;99.90
54832;DHT22;40730;53.068;6.572;2023-04-25T13:37:35;9.40;99.90
54832;DHT22;40730;53.068;6.572;2023-04-25T13:40:03;9.40;99.90
54832;DHT22;40730;53.068;6.572;2023-04-25T13:42:30;9.50;99.90
54832;DHT22;40730;53.068;6.572;2023-04-25T13:44:56;9.60;99.90
54832;DHT22;40730;53.068;6.572;2023-04-25T13:47:22;9.40;99.90
54832;DHT22;40730;53.068;6.572;2023-04-25T13:49:48;9.10;99.90
54832;DHT22;40730;53.068;6.572;2023-04-25T13:52:14;9.00;99.90
54832;DHT22;40730;53.068;6.572;2023-04-25T13:54:41;8.70;99.90
54832;DHT22;40730;53.068;6.572;2023-04-25T13:57:07;8.50;99.90
54832;DHT22;40730;53.068;6.572;2023-04-25T13:59:33;8.40;99.90
54832;DHT22;40730;53.068;6.572;2023-04-25T14:01:58;8.10;99.90
54832;DHT22;40730;53.068;6.572;2023-04-25T14:04:24;7.90;99.90
54832;DHT22;40730;53.068;6.572;2023-04-25T14:06:50;7.80;99.90
54832;DHT22;40730;53.068;6.572;2023-04-25T14:09:17;7.80;99.90
54832;DHT22;40730;53.068;6.572;2023-04-25T14:11:42;7.90;99.90
54832;DHT22;40730;53.068;6.572;2023-04-25T14:14:08;8.10;99.90
54832;DHT22;40730;53.068;6.572;2023-04-25T14:16:34;8.20;99.90
54832;DHT22;40730;53.068;6.572;2023-04-25T14:19:00;8.40;99.90
54832;DHT22;40730;53.068;6.572;2023-04-25T14:21:27;8.50;99.90
54832;DHT22;40730;53.068;6.572;2023-04-25T14:23:53;8.70;99.90
54832;DHT22;40730;53.068;6.572;2023-04-25T14:26:19;8.90;99.90
54832;DHT22;40730;53.068;6.572;2023-04-25T14:28:45;9.00;99.90
54832;DHT22;40730;53.068;6.572;2023-04-25T14:31:10;9.20;99.90
54832;DHT22;40730;53.068;6.572;2023-04-25T14:33:36;9.50;99.90
54832;DHT22;40730;53.068;6.572;2023-04-25T14:36:05;9.20;99.90
54832;DHT22;40730;53.068;6.572;2023-04-25T14:38:31;8.90;99.90
54832;DHT22;40730;53.068;6.572;2023-04-25T14:40:56;8.70;99.90
54832;DHT22;40730;53.068;6.572;2023-04-25T14:43:22;8.50;99.90
54832;DHT22;40730;53.068;6.572;2023-04-25T14:45:47;8.70;99.90
54832;DHT22;40730;53.068;6.572;2023-04-25T14:48:13;8.40;99.90
54832;DHT22;40730;53.068;6.572;2023-04-25T14:50:39;8.30;99.90
54832;DHT22;40730;53.068;6.572;2023-04-25T14:53:04;8.40;99.90
54832;DHT22;40730;53.068;6.572;2023-04-25T14:55:31;8.60;99.90
54832;DHT22;40730;53.068;6.572;2023-04-25T14:57:56;8.70;99.90
54832;DHT22;40730;53.068;6.572;2023-04-25T15:00:22;8.80;99.90
54832;DHT22;40730;53.068;6.572;2023-04-25T15:02:51;8.70;99.90
54832;DHT22;40730;53.068;6.572;2023-04-25T15:05:17;8.80;99.90
54832;DHT22;40730;53.068;6.572;2023-04-25T15:07:43;8.30;99.90
54832;DHT22;40730;53.068;6.572;2023-04-25T15:10:09;8.30;99.90
54832;DHT22;40730;53.068;6.572;2023-04-25T15:12:45;8.40;99.90
54832;DHT22;40730;53.068;6.572;2023-04-25T15:15:11;8.60;99.90
54832;DHT22;40730;53.068;6.572;2023-04-25T15:17:41;8.70;99.90
54832;DHT22;40730;53.068;6.572;2023-04-25T15:20:09;8.50;99.90
54832;DHT22;40730;53.068;6.572;2023-04-25T15:22:36;8.30;99.90
54832;DHT22;40730;53.068;6.572;2023-04-25T15:25:02;8.10;99.90
54832;DHT22;40730;53.068;6.572;2023-04-25T15:27:28;7.90;99.90
54832;DHT22;40730;53.068;6.572;2023-04-25T15:29:54;7.90;99.90
54832;DHT22;40730;53.068;6.572;2023-04-25T15:32:20;8.00;99.90
54832;DHT22;40730;53.068;6.572;2023-04-25T15:34:46;8.70;99.90
54832;DHT22;40730;53.068;6.572;2023-04-25T15:37:11;8.70;99.90
54832;DHT22;40730;53.068;6.572;2023-04-25T15:39:37;9.10;99.90
54832;DHT22;40730;53.068;6.572;2023-04-25T15:42:03;9.30;99.90
54832;DHT22;40730;53.068;6.572;2023-04-25T15:44:29;9.40;99.90
54832;DHT22;40730;53.068;6.572;2023-04-25T15:46:54;9.30;99.90
54832;DHT22;40730;53.068;6.572;2023-04-25T15:49:20;9.00;99.90
54832;DHT22;40730;53.068;6.572;2023-04-25T15:51:54;8.70;99.90